< < Back
Terminal Aerodrome Forecast


Current Version              Previous Versions:   1  2  3  4  5  6  7  8  9  

Terminal Aerodrome Forecast

667
FTUS42 KILM 270535
TAFFLO
TAF
KFLO 270535Z 2706/2806 VRB03KT P6SM SKC
     FM270800 VRB02KT 5SM BR FEW060
     FM271200 04002KT 4SM BR SKC
     FM271300 08005KT P6SM SKC
     FM271700 12007KT P6SM SCT050=

Latest METAR

794
SAUS70 KWBC 272000 RRC
MTRFLO
METAR KFLO 271953Z AUTO 13008G15KT 10SM FEW050 36/21 A3005 RMK AO2
SLP173 T03560206 TSNO


USA.gov is the U.S. government's official web portal to all federal, state and local government web resources and services.